CheckWX is a tool to help pilots better visualize weather data.  It is not intended as a substitute for an official pre-flight weather briefing.

12:19:16 UTC

KAKR METAR
Akron Fulton International Airport
Akron, Ohio, USA
Current

25 mins ago

KAKR 181154Z AUTO 29011KT 10SM OVC010 M03/M06 A2995 RMK AO2 CIG 008V013 SLP153 I6001 T10331056 11011 21033 51029
Observed
Feb-18 @ 11:54 UTC
Wind
  • 290° at 11 KTS
Visibility
10 SM
Flight Rules
MVFR
Cloud Levels
  • Overcast at 1,000' AGL
Temperature
-3°C / 27°F
Dewpoint
-6°C / 21°F
Humidity
80%
Altimeter
29.95" Hg
Pressure
1015.3 hPa
Previous

41 mins ago

KAKR 181138Z AUTO 30010KT 10SM SCT007 OVC010 M03/M06 A2994 RMK AO2 T10331056
Observed
Feb-18 @ 11:38 UTC
Wind
  • 300° at 10 KTS
Visibility
10 SM
Flight Rules
MVFR
Cloud Levels
  • Scattered at 700' AGL
  • Overcast at 1,000' AGL
Temperature
-3°C / 27°F
Dewpoint
-6°C / 21°F
Humidity
80%
Altimeter
29.94" Hg
Pressure
1013.92 hPa
Previous

1 hour ago

KAKR 181054Z AUTO 28007KT 8SM OVC008 M03/M05 A2992 RMK AO2 CIG 006V011 SLP144 T10331050
Observed
Feb-18 @ 10:54 UTC
Wind
  • 280° at 7 KTS
Visibility
8 SM
Flight Rules
IFR
Cloud Levels
  • Overcast at 800' AGL
Temperature
-3°C / 27°F
Dewpoint
-5°C / 23°F
Humidity
86%
Altimeter
29.92" Hg
Pressure
1014.4 hPa